sensor_id;sensor_type;location;lat;lon;timestamp;P1;durP1;ratioP1;P2;durP2;ratioP2
68821;SDS011;55834;50.870;4.606;2022-08-20T00:02:15;4.22;;;3.13;;
68821;SDS011;55834;50.870;4.606;2022-08-20T00:04:40;5.33;;;3.47;;
68821;SDS011;55834;50.870;4.606;2022-08-20T00:07:06;4.10;;;2.40;;
68821;SDS011;55834;50.870;4.606;2022-08-20T00:09:31;2.42;;;1.95;;
68821;SDS011;55834;50.870;4.606;2022-08-20T00:11:58;5.25;;;3.20;;
68821;SDS011;55834;50.870;4.606;2022-08-20T00:14:25;5.25;;;3.08;;
68821;SDS011;55834;50.870;4.606;2022-08-20T00:16:50;4.72;;;3.08;;
68821;SDS011;55834;50.870;4.606;2022-08-20T00:19:16;4.40;;;2.83;;
68821;SDS011;55834;50.870;4.606;2022-08-20T00:21:42;5.43;;;3.13;;
68821;SDS011;55834;50.870;4.606;2022-08-20T00:24:09;4.18;;;2.80;;
68821;SDS011;55834;50.870;4.606;2022-08-20T00:26:34;6.80;;;3.67;;
68821;SDS011;55834;50.870;4.606;2022-08-20T00:29:00;3.70;;;3.00;;
68821;SDS011;55834;50.870;4.606;2022-08-20T00:31:25;3.72;;;2.58;;
68821;SDS011;55834;50.870;4.606;2022-08-20T00:33:51;4.78;;;3.22;;
68821;SDS011;55834;50.870;4.606;2022-08-20T00:36:17;7.80;;;3.85;;
68821;SDS011;55834;50.870;4.606;2022-08-20T00:38:43;6.45;;;2.95;;
68821;SDS011;55834;50.870;4.606;2022-08-20T00:41:12;6.20;;;3.17;;
68821;SDS011;55834;50.870;4.606;2022-08-20T00:43:44;4.20;;;2.60;;
68821;SDS011;55834;50.870;4.606;2022-08-20T00:46:17;4.97;;;2.80;;
68821;SDS011;55834;50.870;4.606;2022-08-20T00:48:46;4.05;;;2.45;;
68821;SDS011;55834;50.870;4.606;2022-08-20T00:54:01;3.75;;;2.70;;
68821;SDS011;55834;50.870;4.606;2022-08-20T00:56:34;3.70;;;2.78;;
68821;SDS011;55834;50.870;4.606;2022-08-20T00:59:01;6.47;;;3.05;;
68821;SDS011;55834;50.870;4.606;2022-08-20T01:01:29;3.42;;;2.45;;
68821;SDS011;55834;50.870;4.606;2022-08-20T01:03:58;5.20;;;2.83;;
68821;SDS011;55834;50.870;4.606;2022-08-20T01:06:24;6.30;;;2.13;;
68821;SDS011;55834;50.870;4.606;2022-08-20T01:08:52;3.58;;;2.67;;
68821;SDS011;55834;50.870;4.606;2022-08-20T01:11:18;3.60;;;2.65;;
68821;SDS011;55834;50.870;4.606;2022-08-20T01:13:46;4.03;;;3.40;;
68821;SDS011;55834;50.870;4.606;2022-08-20T01:16:19;4.75;;;3.15;;
68821;SDS011;55834;50.870;4.606;2022-08-20T01:18:49;3.03;;;2.40;;
68821;SDS011;55834;50.870;4.606;2022-08-20T01:21:16;6.53;;;3.42;;
68821;SDS011;55834;50.870;4.606;2022-08-20T01:24:02;3.72;;;2.50;;
68821;SDS011;55834;50.870;4.606;2022-08-20T01:26:45;3.78;;;2.17;;
68821;SDS011;55834;50.870;4.606;2022-08-20T01:29:24;5.13;;;2.22;;
68821;SDS011;55834;50.870;4.606;2022-08-20T01:31:58;5.85;;;3.28;;
68821;SDS011;55834;50.870;4.606;2022-08-20T01:34:25;6.10;;;2.83;;
68821;SDS011;55834;50.870;4.606;2022-08-20T01:36:52;5.45;;;2.20;;
68821;SDS011;55834;50.870;4.606;2022-08-20T01:39:28;7.28;;;2.47;;
68821;SDS011;55834;50.870;4.606;2022-08-20T01:42:06;9.25;;;3.60;;
68821;SDS011;55834;50.870;4.606;2022-08-20T01:44:40;4.05;;;2.30;;
68821;SDS011;55834;50.870;4.606;2022-08-20T01:47:14;8.25;;;2.78;;
68821;SDS011;55834;50.870;4.606;2022-08-20T01:49:44;8.35;;;2.55;;
68821;SDS011;55834;50.870;4.606;2022-08-20T01:52:18;5.85;;;2.10;;
68821;SDS011;55834;50.870;4.606;2022-08-20T01:54:52;7.63;;;2.20;;
68821;SDS011;55834;50.870;4.606;2022-08-20T01:57:18;4.47;;;1.90;;
68821;SDS011;55834;50.870;4.606;2022-08-20T01:59:48;9.43;;;2.75;;
68821;SDS011;55834;50.870;4.606;2022-08-20T02:02:14;5.82;;;2.08;;
68821;SDS011;55834;50.870;4.606;2022-08-20T02:04:40;8.25;;;2.97;;
68821;SDS011;55834;50.870;4.606;2022-08-20T02:07:06;7.93;;;2.03;;
68821;SDS011;55834;50.870;4.606;2022-08-20T02:09:37;5.03;;;1.75;;
68821;SDS011;55834;50.870;4.606;2022-08-20T02:12:04;5.60;;;1.73;;
68821;SDS011;55834;50.870;4.606;2022-08-20T02:14:31;5.88;;;1.80;;
68821;SDS011;55834;50.870;4.606;2022-08-20T02:16:57;2.67;;;1.83;;
68821;SDS011;55834;50.870;4.606;2022-08-20T02:19:28;4.70;;;2.70;;
68821;SDS011;55834;50.870;4.606;2022-08-20T02:21:59;6.05;;;2.15;;
68821;SDS011;55834;50.870;4.606;2022-08-20T02:24:28;2.25;;;1.48;;
68821;SDS011;55834;50.870;4.606;2022-08-20T02:26:54;4.38;;;1.90;;
68821;SDS011;55834;50.870;4.606;2022-08-20T02:29:19;6.82;;;2.40;;
68821;SDS011;55834;50.870;4.606;2022-08-20T02:31:45;6.38;;;2.17;;
68821;SDS011;55834;50.870;4.606;2022-08-20T02:34:12;3.67;;;1.70;;
68821;SDS011;55834;50.870;4.606;2022-08-20T02:36:39;3.38;;;1.92;;
68821;SDS011;55834;50.870;4.606;2022-08-20T02:39:07;4.45;;;1.88;;
68821;SDS011;55834;50.870;4.606;2022-08-20T02:41:34;4.78;;;1.85;;
68821;SDS011;55834;50.870;4.606;2022-08-20T02:48:52;4.35;;;1.77;;
68821;SDS011;55834;50.870;4.606;2022-08-20T02:51:18;6.00;;;1.90;;
68821;SDS011;55834;50.870;4.606;2022-08-20T02:53:44;6.07;;;2.27;;
68821;SDS011;55834;50.870;4.606;2022-08-20T02:56:10;4.22;;;1.98;;
68821;SDS011;55834;50.870;4.606;2022-08-20T03:01:03;5.55;;;2.35;;
68821;SDS011;55834;50.870;4.606;2022-08-20T03:03:31;10.05;;;2.45;;
68821;SDS011;55834;50.870;4.606;2022-08-20T03:05:57;3.17;;;1.50;;
68821;SDS011;55834;50.870;4.606;2022-08-20T03:08:23;7.63;;;2.42;;
68821;SDS011;55834;50.870;4.606;2022-08-20T03:10:50;4.60;;;2.33;;
68821;SDS011;55834;50.870;4.606;2022-08-20T03:13:16;10.80;;;2.35;;
68821;SDS011;55834;50.870;4.606;2022-08-20T03:15:45;5.72;;;2.00;;
68821;SDS011;55834;50.870;4.606;2022-08-20T03:18:12;7.50;;;2.40;;
68821;SDS011;55834;50.870;4.606;2022-08-20T03:20:39;7.03;;;1.80;;
68821;SDS011;55834;50.870;4.606;2022-08-20T03:23:05;4.57;;;2.22;;
68821;SDS011;55834;50.870;4.606;2022-08-20T03:25:30;7.22;;;2.47;;
68821;SDS011;55834;50.870;4.606;2022-08-20T03:27:57;7.88;;;1.85;;
68821;SDS011;55834;50.870;4.606;2022-08-20T03:30:23;3.47;;;1.48;;
68821;SDS011;55834;50.870;4.606;2022-08-20T03:32:51;7.38;;;2.17;;
68821;SDS011;55834;50.870;4.606;2022-08-20T03:35:18;4.72;;;1.85;;
68821;SDS011;55834;50.870;4.606;2022-08-20T03:37:45;3.80;;;2.17;;
68821;SDS011;55834;50.870;4.606;2022-08-20T03:40:13;7.53;;;2.25;;
68821;SDS011;55834;50.870;4.606;2022-08-20T03:42:42;6.57;;;2.13;;
68821;SDS011;55834;50.870;4.606;2022-08-20T03:45:09;9.07;;;2.50;;
68821;SDS011;55834;50.870;4.606;2022-08-20T03:47:36;8.88;;;2.97;;
68821;SDS011;55834;50.870;4.606;2022-08-20T03:50:03;6.40;;;2.60;;
68821;SDS011;55834;50.870;4.606;2022-08-20T03:52:31;9.05;;;2.75;;
68821;SDS011;55834;50.870;4.606;2022-08-20T03:54:56;6.70;;;2.80;;
68821;SDS011;55834;50.870;4.606;2022-08-20T03:57:22;8.35;;;2.75;;
68821;SDS011;55834;50.870;4.606;2022-08-20T03:59:48;10.60;;;3.50;;
68821;SDS011;55834;50.870;4.606;2022-08-20T04:02:13;7.50;;;3.17;;
68821;SDS011;55834;50.870;4.606;2022-08-20T04:04:39;6.65;;;2.80;;
68821;SDS011;55834;50.870;4.606;2022-08-20T04:07:22;7.40;;;2.55;;
68821;SDS011;55834;50.870;4.606;2022-08-20T04:09:53;9.60;;;3.10;;
68821;SDS011;55834;50.870;4.606;2022-08-20T04:12:20;3.97;;;2.45;;
68821;SDS011;55834;50.870;4.606;2022-08-20T04:19:38;7.55;;;2.83;;
68821;SDS011;55834;50.870;4.606;2022-08-20T04:22:04;9.82;;;3.30;;
68821;SDS011;55834;50.870;4.606;2022-08-20T04:24:31;8.73;;;2.75;;
68821;SDS011;55834;50.870;4.606;2022-08-20T04:26:57;6.35;;;2.00;;
68821;SDS011;55834;50.870;4.606;2022-08-20T04:29:23;10.20;;;3.05;;
68821;SDS011;55834;50.870;4.606;2022-08-20T04:34:16;4.30;;;2.50;;
68821;SDS011;55834;50.870;4.606;2022-08-20T04:36:46;4.47;;;2.17;;
68821;SDS011;55834;50.870;4.606;2022-08-20T04:39:13;6.50;;;2.33;;
68821;SDS011;55834;50.870;4.606;2022-08-20T04:44:05;9.95;;;3.08;;
68821;SDS011;55834;50.870;4.606;2022-08-20T04:46:31;6.90;;;1.92;;
68821;SDS011;55834;50.870;4.606;2022-08-20T04:48:56;8.18;;;2.65;;
68821;SDS011;55834;50.870;4.606;2022-08-20T04:51:24;8.48;;;2.92;;
68821;SDS011;55834;50.870;4.606;2022-08-20T04:53:51;6.97;;;2.80;;
68821;SDS011;55834;50.870;4.606;2022-08-20T04:56:17;9.95;;;4.47;;
68821;SDS011;55834;50.870;4.606;2022-08-20T04:58:47;10.40;;;3.50;;
68821;SDS011;55834;50.870;4.606;2022-08-20T05:01:15;7.47;;;3.45;;
68821;SDS011;55834;50.870;4.606;2022-08-20T05:03:41;7.82;;;2.58;;
68821;SDS011;55834;50.870;4.606;2022-08-20T05:06:07;15.02;;;4.97;;
68821;SDS011;55834;50.870;4.606;2022-08-20T05:08:34;9.02;;;3.33;;
68821;SDS011;55834;50.870;4.606;2022-08-20T05:11:00;5.55;;;2.95;;
68821;SDS011;55834;50.870;4.606;2022-08-20T05:18:19;4.55;;;2.90;;
68821;SDS011;55834;50.870;4.606;2022-08-20T05:20:47;6.65;;;2.42;;
68821;SDS011;55834;50.870;4.606;2022-08-20T05:23:14;5.90;;;1.83;;
68821;SDS011;55834;50.870;4.606;2022-08-20T05:25:41;6.95;;;2.92;;
68821;SDS011;55834;50.870;4.606;2022-08-20T05:28:11;5.88;;;2.85;;
68821;SDS011;55834;50.870;4.606;2022-08-20T05:30:48;7.65;;;2.67;;
68821;SDS011;55834;50.870;4.606;2022-08-20T05:33:14;7.45;;;3.65;;
68821;SDS011;55834;50.870;4.606;2022-08-20T05:35:44;8.40;;;3.47;;
68821;SDS011;55834;50.870;4.606;2022-08-20T05:38:12;16.52;;;4.75;;
68821;SDS011;55834;50.870;4.606;2022-08-20T05:40:40;9.95;;;3.67;;
68821;SDS011;55834;50.870;4.606;2022-08-20T05:43:06;8.23;;;3.00;;
68821;SDS011;55834;50.870;4.606;2022-08-20T05:45:34;7.05;;;2.88;;
68821;SDS011;55834;50.870;4.606;2022-08-20T05:48:08;4.57;;;2.60;;
68821;SDS011;55834;50.870;4.606;2022-08-20T05:50:36;6.57;;;3.00;;
68821;SDS011;55834;50.870;4.606;2022-08-20T05:53:02;5.28;;;2.60;;
68821;SDS011;55834;50.870;4.606;2022-08-20T05:55:29;5.80;;;2.63;;
68821;SDS011;55834;50.870;4.606;2022-08-20T05:57:58;6.75;;;2.63;;
68821;SDS011;55834;50.870;4.606;2022-08-20T06:00:25;5.03;;;2.85;;
68821;SDS011;55834;50.870;4.606;2022-08-20T06:02:52;9.68;;;3.67;;
68821;SDS011;55834;50.870;4.606;2022-08-20T06:05:36;10.30;;;4.20;;
68821;SDS011;55834;50.870;4.606;2022-08-20T06:08:05;9.68;;;3.25;;
68821;SDS011;55834;50.870;4.606;2022-08-20T06:10:32;6.88;;;2.85;;
68821;SDS011;55834;50.870;4.606;2022-08-20T06:12:59;7.80;;;3.03;;
68821;SDS011;55834;50.870;4.606;2022-08-20T06:15:25;6.78;;;3.20;;
68821;SDS011;55834;50.870;4.606;2022-08-20T06:17:50;5.25;;;3.25;;
68821;SDS011;55834;50.870;4.606;2022-08-20T06:20:16;6.77;;;2.73;;
68821;SDS011;55834;50.870;4.606;2022-08-20T06:22:42;5.70;;;3.13;;
68821;SDS011;55834;50.870;4.606;2022-08-20T06:25:09;10.23;;;4.57;;
68821;SDS011;55834;50.870;4.606;2022-08-20T06:27:38;12.13;;;4.38;;
68821;SDS011;55834;50.870;4.606;2022-08-20T06:30:06;8.32;;;3.53;;
68821;SDS011;55834;50.870;4.606;2022-08-20T06:32:33;9.52;;;3.80;;
68821;SDS011;55834;50.870;4.606;2022-08-20T06:35:03;8.20;;;3.60;;
68821;SDS011;55834;50.870;4.606;2022-08-20T06:37:30;7.72;;;3.80;;
68821;SDS011;55834;50.870;4.606;2022-08-20T06:40:16;10.35;;;4.03;;
68821;SDS011;55834;50.870;4.606;2022-08-20T06:42:44;9.10;;;4.07;;
68821;SDS011;55834;50.870;4.606;2022-08-20T06:45:13;12.88;;;4.00;;
68821;SDS011;55834;50.870;4.606;2022-08-20T06:47:40;14.60;;;4.63;;
68821;SDS011;55834;50.870;4.606;2022-08-20T06:50:11;10.40;;;3.88;;
68821;SDS011;55834;50.870;4.606;2022-08-20T06:52:39;8.25;;;3.55;;
68821;SDS011;55834;50.870;4.606;2022-08-20T06:55:06;13.05;;;4.53;;
68821;SDS011;55834;50.870;4.606;2022-08-20T06:57:33;12.93;;;4.32;;
68821;SDS011;55834;50.870;4.606;2022-08-20T06:59:59;6.97;;;3.20;;
68821;SDS011;55834;50.870;4.606;2022-08-20T07:02:25;11.13;;;4.05;;
68821;SDS011;55834;50.870;4.606;2022-08-20T07:04:50;13.37;;;4.97;;
68821;SDS011;55834;50.870;4.606;2022-08-20T07:07:16;10.50;;;4.57;;
68821;SDS011;55834;50.870;4.606;2022-08-20T07:09:43;10.40;;;4.32;;
68821;SDS011;55834;50.870;4.606;2022-08-20T07:12:08;8.50;;;4.03;;
68821;SDS011;55834;50.870;4.606;2022-08-20T07:14:34;10.60;;;4.20;;
68821;SDS011;55834;50.870;4.606;2022-08-20T07:17:03;10.75;;;5.13;;
68821;SDS011;55834;50.870;4.606;2022-08-20T07:19:30;8.13;;;3.90;;
68821;SDS011;55834;50.870;4.606;2022-08-20T07:21:56;9.23;;;4.25;;
68821;SDS011;55834;50.870;4.606;2022-08-20T07:24:21;11.77;;;4.10;;
68821;SDS011;55834;50.870;4.606;2022-08-20T07:26:47;10.90;;;4.23;;
68821;SDS011;55834;50.870;4.606;2022-08-20T07:29:15;11.65;;;4.32;;
68821;SDS011;55834;50.870;4.606;2022-08-20T07:31:40;13.65;;;5.50;;
68821;SDS011;55834;50.870;4.606;2022-08-20T07:34:24;12.63;;;5.78;;
68821;SDS011;55834;50.870;4.606;2022-08-20T07:36:49;9.53;;;4.87;;
68821;SDS011;55834;50.870;4.606;2022-08-20T07:39:15;9.73;;;4.70;;
68821;SDS011;55834;50.870;4.606;2022-08-20T07:41:40;13.27;;;5.13;;
68821;SDS011;55834;50.870;4.606;2022-08-20T07:44:05;9.43;;;4.97;;
68821;SDS011;55834;50.870;4.606;2022-08-20T07:46:31;13.52;;;6.10;;
68821;SDS011;55834;50.870;4.606;2022-08-20T07:48:56;9.27;;;4.28;;
68821;SDS011;55834;50.870;4.606;2022-08-20T07:51:22;12.75;;;4.93;;
68821;SDS011;55834;50.870;4.606;2022-08-20T07:53:48;9.43;;;4.30;;
68821;SDS011;55834;50.870;4.606;2022-08-20T07:56:18;11.65;;;5.88;;
68821;SDS011;55834;50.870;4.606;2022-08-20T07:58:48;9.25;;;4.53;;
68821;SDS011;55834;50.870;4.606;2022-08-20T08:01:21;18.52;;;7.13;;
68821;SDS011;55834;50.870;4.606;2022-08-20T08:03:52;14.13;;;7.47;;
68821;SDS011;55834;50.870;4.606;2022-08-20T08:06:18;15.35;;;8.45;;
68821;SDS011;55834;50.870;4.606;2022-08-20T08:08:45;17.50;;;10.00;;
68821;SDS011;55834;50.870;4.606;2022-08-20T08:11:12;17.17;;;9.25;;
68821;SDS011;55834;50.870;4.606;2022-08-20T08:13:39;14.57;;;8.90;;
68821;SDS011;55834;50.870;4.606;2022-08-20T08:16:05;16.80;;;8.35;;
68821;SDS011;55834;50.870;4.606;2022-08-20T08:18:35;14.68;;;8.05;;
68821;SDS011;55834;50.870;4.606;2022-08-20T08:21:07;14.55;;;7.25;;
68821;SDS011;55834;50.870;4.606;2022-08-20T08:23:36;14.15;;;7.78;;
68821;SDS011;55834;50.870;4.606;2022-08-20T08:26:04;12.20;;;6.20;;
68821;SDS011;55834;50.870;4.606;2022-08-20T08:28:30;8.30;;;4.88;;
68821;SDS011;55834;50.870;4.606;2022-08-20T08:30:56;9.80;;;5.97;;
68821;SDS011;55834;50.870;4.606;2022-08-20T08:33:23;10.13;;;5.28;;
68821;SDS011;55834;50.870;4.606;2022-08-20T08:35:58;9.98;;;4.90;;
68821;SDS011;55834;50.870;4.606;2022-08-20T08:38:30;13.23;;;4.72;;
68821;SDS011;55834;50.870;4.606;2022-08-20T08:41:01;9.18;;;5.28;;
68821;SDS011;55834;50.870;4.606;2022-08-20T08:43:49;8.35;;;3.42;;
68821;SDS011;55834;50.870;4.606;2022-08-20T08:46:18;7.40;;;3.83;;
68821;SDS011;55834;50.870;4.606;2022-08-20T08:48:48;10.27;;;4.13;;
68821;SDS011;55834;50.870;4.606;2022-08-20T08:51:23;7.38;;;3.88;;
68821;SDS011;55834;50.870;4.606;2022-08-20T08:53:54;6.43;;;2.75;;
68821;SDS011;55834;50.870;4.606;2022-08-20T08:58:48;4.93;;;2.88;;
68821;SDS011;55834;50.870;4.606;2022-08-20T09:01:14;7.18;;;3.35;;
68821;SDS011;55834;50.870;4.606;2022-08-20T09:03:42;4.78;;;2.67;;
68821;SDS011;55834;50.870;4.606;2022-08-20T09:06:14;6.80;;;3.78;;
68821;SDS011;55834;50.870;4.606;2022-08-20T09:08:44;6.85;;;3.30;;
68821;SDS011;55834;50.870;4.606;2022-08-20T09:11:12;9.38;;;3.80;;
68821;SDS011;55834;50.870;4.606;2022-08-20T09:13:40;8.30;;;3.17;;
68821;SDS011;55834;50.870;4.606;2022-08-20T09:16:07;8.40;;;3.42;;
68821;SDS011;55834;50.870;4.606;2022-08-20T09:18:33;6.13;;;2.72;;
68821;SDS011;55834;50.870;4.606;2022-08-20T09:20:58;6.70;;;2.63;;
68821;SDS011;55834;50.870;4.606;2022-08-20T09:23:24;9.13;;;2.67;;
68821;SDS011;55834;50.870;4.606;2022-08-20T09:25:49;5.82;;;3.05;;
68821;SDS011;55834;50.870;4.606;2022-08-20T09:28:15;3.53;;;1.67;;
68821;SDS011;55834;50.870;4.606;2022-08-20T09:30:40;4.47;;;1.90;;
68821;SDS011;55834;50.870;4.606;2022-08-20T09:33:24;6.70;;;2.10;;
68821;SDS011;55834;50.870;4.606;2022-08-20T09:35:53;5.85;;;1.73;;
68821;SDS011;55834;50.870;4.606;2022-08-20T09:38:19;4.20;;;1.52;;
68821;SDS011;55834;50.870;4.606;2022-08-20T09:41:02;5.20;;;2.40;;
68821;SDS011;55834;50.870;4.606;2022-08-20T09:49:51;5.63;;;1.17;;
68821;SDS011;55834;50.870;4.606;2022-08-20T09:58:34;2.70;;;1.23;;
68821;SDS011;55834;50.870;4.606;2022-08-20T10:04:31;6.40;;;1.35;;
68821;SDS011;55834;50.870;4.606;2022-08-20T10:07:20;4.32;;;1.00;;
68821;SDS011;55834;50.870;4.606;2022-08-20T10:09:47;2.28;;;1.15;;
68821;SDS011;55834;50.870;4.606;2022-08-20T10:14:45;5.65;;;1.73;;
68821;SDS011;55834;50.870;4.606;2022-08-20T10:17:22;3.67;;;1.58;;
68821;SDS011;55834;50.870;4.606;2022-08-20T10:19:48;3.42;;;1.17;;
68821;SDS011;55834;50.870;4.606;2022-08-20T10:22:13;6.07;;;1.75;;
68821;SDS011;55834;50.870;4.606;2022-08-20T10:24:42;3.75;;;1.40;;
68821;SDS011;55834;50.870;4.606;2022-08-20T10:27:07;9.63;;;1.85;;
68821;SDS011;55834;50.870;4.606;2022-08-20T10:29:36;7.07;;;1.58;;
68821;SDS011;55834;50.870;4.606;2022-08-20T10:34:59;7.90;;;1.50;;
68821;SDS011;55834;50.870;4.606;2022-08-20T10:37:25;9.13;;;1.95;;
68821;SDS011;55834;50.870;4.606;2022-08-20T10:39:54;2.60;;;1.30;;
68821;SDS011;55834;50.870;4.606;2022-08-20T10:42:28;6.28;;;2.00;;
68821;SDS011;55834;50.870;4.606;2022-08-20T10:44:53;7.65;;;2.40;;
68821;SDS011;55834;50.870;4.606;2022-08-20T10:47:24;5.18;;;1.65;;
68821;SDS011;55834;50.870;4.606;2022-08-20T10:49:56;3.75;;;1.25;;
68821;SDS011;55834;50.870;4.606;2022-08-20T10:52:41;6.53;;;1.20;;
68821;SDS011;55834;50.870;4.606;2022-08-20T10:55:07;4.40;;;1.25;;
68821;SDS011;55834;50.870;4.606;2022-08-20T10:57:42;4.70;;;1.20;;
68821;SDS011;55834;50.870;4.606;2022-08-20T11:03:33;6.30;;;1.85;;
68821;SDS011;55834;50.870;4.606;2022-08-20T11:06:24;4.32;;;2.10;;
68821;SDS011;55834;50.870;4.606;2022-08-20T11:17:27;3.60;;;1.98;;
68821;SDS011;55834;50.870;4.606;2022-08-20T11:20:08;3.03;;;1.40;;
68821;SDS011;55834;50.870;4.606;2022-08-20T11:32:44;5.50;;;2.78;;
68821;SDS011;55834;50.870;4.606;2022-08-20T12:26:08;4.28;;;1.17;;
68821;SDS011;55834;50.870;4.606;2022-08-20T12:38:14;3.28;;;1.40;;
68821;SDS011;55834;50.870;4.606;2022-08-20T12:40:49;3.00;;;1.55;;
68821;SDS011;55834;50.870;4.606;2022-08-20T12:50:47;2.70;;;1.33;;
68821;SDS011;55834;50.870;4.606;2022-08-20T12:56:02;4.70;;;1.40;;
68821;SDS011;55834;50.870;4.606;2022-08-20T13:02:03;2.60;;;1.23;;
68821;SDS011;55834;50.870;4.606;2022-08-20T13:12:21;3.17;;;1.17;;
68821;SDS011;55834;50.870;4.606;2022-08-20T13:28:20;2.85;;;1.05;;
68821;SDS011;55834;50.870;4.606;2022-08-20T13:30:46;4.97;;;1.30;;
68821;SDS011;55834;50.870;4.606;2022-08-20T13:38:14;0.98;;;0.52;;
68821;SDS011;55834;50.870;4.606;2022-08-20T13:41:18;2.40;;;0.95;;
68821;SDS011;55834;50.870;4.606;2022-08-20T13:44:26;2.92;;;1.05;;
68821;SDS011;55834;50.870;4.606;2022-08-20T13:53:33;5.10;;;1.02;;
68821;SDS011;55834;50.870;4.606;2022-08-20T14:03:43;3.65;;;1.00;;
68821;SDS011;55834;50.870;4.606;2022-08-20T14:06:11;1.73;;;0.90;;
68821;SDS011;55834;50.870;4.606;2022-08-20T14:15:27;6.00;;;1.42;;
68821;SDS011;55834;50.870;4.606;2022-08-20T14:17:53;2.38;;;1.10;;
68821;SDS011;55834;50.870;4.606;2022-08-20T14:20:27;2.50;;;0.85;;
68821;SDS011;55834;50.870;4.606;2022-08-20T14:23:07;3.88;;;1.17;;
68821;SDS011;55834;50.870;4.606;2022-08-20T14:28:20;4.57;;;1.38;;
68821;SDS011;55834;50.870;4.606;2022-08-20T14:31:02;1.70;;;1.02;;
68821;SDS011;55834;50.870;4.606;2022-08-20T14:36:34;1.60;;;1.02;;
68821;SDS011;55834;50.870;4.606;2022-08-20T14:39:12;2.67;;;1.15;;
68821;SDS011;55834;50.870;4.606;2022-08-20T14:41:58;2.10;;;1.15;;
68821;SDS011;55834;50.870;4.606;2022-08-20T14:44:33;2.38;;;0.80;;
68821;SDS011;55834;50.870;4.606;2022-08-20T14:47:09;4.82;;;1.40;;
68821;SDS011;55834;50.870;4.606;2022-08-20T14:49:35;4.55;;;1.60;;
68821;SDS011;55834;50.870;4.606;2022-08-20T14:52:00;3.28;;;1.00;;
68821;SDS011;55834;50.870;4.606;2022-08-20T14:54:33;5.68;;;1.20;;
68821;SDS011;55834;50.870;4.606;2022-08-20T14:57:01;2.88;;;1.27;;
68821;SDS011;55834;50.870;4.606;2022-08-20T14:59:34;2.00;;;0.90;;
68821;SDS011;55834;50.870;4.606;2022-08-20T15:02:02;3.60;;;1.52;;
68821;SDS011;55834;50.870;4.606;2022-08-20T15:04:32;3.25;;;1.08;;
68821;SDS011;55834;50.870;4.606;2022-08-20T15:06:58;2.25;;;1.02;;
68821;SDS011;55834;50.870;4.606;2022-08-20T15:09:38;2.33;;;1.13;;
68821;SDS011;55834;50.870;4.606;2022-08-20T15:12:06;1.67;;;0.98;;
68821;SDS011;55834;50.870;4.606;2022-08-20T15:14:49;5.13;;;1.63;;
68821;SDS011;55834;50.870;4.606;2022-08-20T15:17:22;2.40;;;1.10;;
68821;SDS011;55834;50.870;4.606;2022-08-20T15:20:05;1.23;;;1.00;;
68821;SDS011;55834;50.870;4.606;2022-08-20T15:22:38;4.55;;;1.33;;
68821;SDS011;55834;50.870;4.606;2022-08-20T15:28:10;3.22;;;0.73;;
68821;SDS011;55834;50.870;4.606;2022-08-20T15:31:12;1.52;;;0.80;;
68821;SDS011;55834;50.870;4.606;2022-08-20T15:33:40;2.50;;;1.00;;
68821;SDS011;55834;50.870;4.606;2022-08-20T15:36:15;0.95;;;0.63;;
68821;SDS011;55834;50.870;4.606;2022-08-20T15:38:44;3.00;;;1.20;;
68821;SDS011;55834;50.870;4.606;2022-08-20T15:41:23;2.25;;;1.05;;
68821;SDS011;55834;50.870;4.606;2022-08-20T15:44:12;5.35;;;1.30;;
68821;SDS011;55834;50.870;4.606;2022-08-20T15:46:42;3.83;;;1.50;;
68821;SDS011;55834;50.870;4.606;2022-08-20T15:49:08;5.65;;;1.10;;
68821;SDS011;55834;50.870;4.606;2022-08-20T15:51:37;2.75;;;1.33;;
68821;SDS011;55834;50.870;4.606;2022-08-20T15:54:31;3.45;;;0.90;;
68821;SDS011;55834;50.870;4.606;2022-08-20T15:57:10;3.53;;;1.02;;
68821;SDS011;55834;50.870;4.606;2022-08-20T16:05:45;2.95;;;1.38;;
68821;SDS011;55834;50.870;4.606;2022-08-20T16:14:24;2.70;;;1.15;;
68821;SDS011;55834;50.870;4.606;2022-08-20T16:17:48;2.85;;;1.17;;
68821;SDS011;55834;50.870;4.606;2022-08-20T16:20:40;4.60;;;1.00;;
68821;SDS011;55834;50.870;4.606;2022-08-20T16:23:15;3.15;;;1.17;;
68821;SDS011;55834;50.870;4.606;2022-08-20T16:28:48;1.83;;;0.70;;
68821;SDS011;55834;50.870;4.606;2022-08-20T16:31:29;2.90;;;0.85;;
68821;SDS011;55834;50.870;4.606;2022-08-20T16:34:02;2.88;;;1.27;;
68821;SDS011;55834;50.870;4.606;2022-08-20T16:36:38;1.85;;;1.00;;
68821;SDS011;55834;50.870;4.606;2022-08-20T16:39:11;5.25;;;1.25;;
68821;SDS011;55834;50.870;4.606;2022-08-20T16:41:44;4.95;;;1.58;;
68821;SDS011;55834;50.870;4.606;2022-08-20T16:44:29;3.00;;;0.90;;
68821;SDS011;55834;50.870;4.606;2022-08-20T16:49:51;3.95;;;1.27;;
68821;SDS011;55834;50.870;4.606;2022-08-20T16:52:30;2.72;;;1.20;;
68821;SDS011;55834;50.870;4.606;2022-08-20T16:54:56;3.17;;;1.50;;
68821;SDS011;55834;50.870;4.606;2022-08-20T16:57:21;2.10;;;1.05;;
68821;SDS011;55834;50.870;4.606;2022-08-20T17:00:31;4.10;;;1.20;;
68821;SDS011;55834;50.870;4.606;2022-08-20T17:02:47;4.28;;;1.83;;
68821;SDS011;55834;50.870;4.606;2022-08-20T17:05:22;2.25;;;1.30;;
68821;SDS011;55834;50.870;4.606;2022-08-20T17:07:52;3.50;;;1.00;;
68821;SDS011;55834;50.870;4.606;2022-08-20T17:10:24;3.25;;;1.15;;
68821;SDS011;55834;50.870;4.606;2022-08-20T17:12:55;2.40;;;1.17;;
68821;SDS011;55834;50.870;4.606;2022-08-20T17:15:27;2.78;;;1.35;;
68821;SDS011;55834;50.870;4.606;2022-08-20T17:17:55;2.20;;;1.00;;
68821;SDS011;55834;50.870;4.606;2022-08-20T17:20:42;4.03;;;1.25;;
68821;SDS011;55834;50.870;4.606;2022-08-20T17:23:10;1.20;;;0.85;;
68821;SDS011;55834;50.870;4.606;2022-08-20T17:25:41;1.40;;;1.00;;
68821;SDS011;55834;50.870;4.606;2022-08-20T17:28:12;3.20;;;1.15;;
68821;SDS011;55834;50.870;4.606;2022-08-20T17:30:39;2.15;;;1.08;;
68821;SDS011;55834;50.870;4.606;2022-08-20T17:35:34;4.60;;;1.77;;
68821;SDS011;55834;50.870;4.606;2022-08-20T17:38:06;1.35;;;0.77;;
68821;SDS011;55834;50.870;4.606;2022-08-20T17:40:39;3.00;;;1.00;;
68821;SDS011;55834;50.870;4.606;2022-08-20T17:43:20;3.95;;;1.42;;
68821;SDS011;55834;50.870;4.606;2022-08-20T17:45:48;4.32;;;0.75;;
68821;SDS011;55834;50.870;4.606;2022-08-20T17:48:19;2.10;;;1.40;;
68821;SDS011;55834;50.870;4.606;2022-08-20T17:50:48;2.15;;;1.15;;
68821;SDS011;55834;50.870;4.606;2022-08-20T17:53:27;2.55;;;1.10;;
68821;SDS011;55834;50.870;4.606;2022-08-20T17:56:00;3.17;;;1.05;;
68821;SDS011;55834;50.870;4.606;2022-08-20T17:58:34;2.63;;;1.13;;
68821;SDS011;55834;50.870;4.606;2022-08-20T18:01:05;2.10;;;1.17;;
68821;SDS011;55834;50.870;4.606;2022-08-20T18:03:31;2.38;;;1.05;;
68821;SDS011;55834;50.870;4.606;2022-08-20T18:06:01;4.20;;;1.65;;
68821;SDS011;55834;50.870;4.606;2022-08-20T18:11:12;2.95;;;1.10;;
68821;SDS011;55834;50.870;4.606;2022-08-20T18:16:53;4.65;;;2.25;;
68821;SDS011;55834;50.870;4.606;2022-08-20T18:22:35;2.10;;;0.95;;
68821;SDS011;55834;50.870;4.606;2022-08-20T18:27:47;2.45;;;1.30;;
68821;SDS011;55834;50.870;4.606;2022-08-20T18:30:17;2.10;;;0.93;;
68821;SDS011;55834;50.870;4.606;2022-08-20T18:32:45;1.80;;;0.80;;
68821;SDS011;55834;50.870;4.606;2022-08-20T18:35:16;4.78;;;1.45;;
68821;SDS011;55834;50.870;4.606;2022-08-20T18:37:56;2.17;;;0.80;;
68821;SDS011;55834;50.870;4.606;2022-08-20T18:40:26;2.85;;;0.95;;
68821;SDS011;55834;50.870;4.606;2022-08-20T18:42:54;5.78;;;1.42;;
68821;SDS011;55834;50.870;4.606;2022-08-20T18:45:31;3.00;;;1.02;;
68821;SDS011;55834;50.870;4.606;2022-08-20T18:47:59;2.22;;;0.68;;
68821;SDS011;55834;50.870;4.606;2022-08-20T18:55:42;1.30;;;1.00;;
68821;SDS011;55834;50.870;4.606;2022-08-20T18:58:14;2.47;;;0.77;;
68821;SDS011;55834;50.870;4.606;2022-08-20T19:00:54;3.65;;;1.00;;
68821;SDS011;55834;50.870;4.606;2022-08-20T19:06:03;2.35;;;1.00;;